Time;durP1;ratioP1;P1;durP2;ratioP2;P2;SDS_P1;SDS_P2;PMS_P1;PMS_P2;Temp;Humidity;BMP_temperature;BMP_pressure;BME280_temperature;BME280_humidity;BME280_pressure;Samples;Min_cycle;Max_cycle;Signal;HPM_P1;HPM_P2
2022/10/01 00:00:15;;;;;;;10.07;4.45;;;12.70;99.90;;;;;;5154238;27;20034;-82
2022/10/01 00:02:41;;;;;;;8.25;4.50;;;12.70;99.90;;;;;;5135328;27;20125;-82
2022/10/01 00:05:09;;;;;;;10.48;5.03;;;12.60;99.90;;;;;;5118319;27;20461;-82
2022/10/01 00:07:39;;;;;;;9.07;4.78;;;12.60;99.90;;;;;;5135096;27;20039;-82
2022/10/01 00:10:06;;;;;;;10.13;5.18;;;12.50;99.90;;;;;;5135340;27;20130;-82
2022/10/01 00:12:32;;;;;;;10.95;5.45;;;12.50;99.90;;;;;;5135176;27;20042;-82
2022/10/01 00:14:58;;;;;;;9.15;5.25;;;12.50;99.90;;;;;;5135263;27;20039;-82
2022/10/01 00:17:27;;;;;;;9.82;7.15;;;12.40;99.90;;;;;;5135205;27;20495;-82
2022/10/01 00:19:52;;;;;;;11.23;5.10;;;12.50;99.90;;;;;;5118572;27;20175;-82
2022/10/01 00:22:18;;;;;;;9.80;5.38;;;12.40;99.90;;;;;;5117328;27;20114;-82
2022/10/01 00:24:46;;;;;;;10.93;5.65;;;12.30;99.90;;;;;;5135282;27;20083;-82
2022/10/01 00:27:12;;;;;;;10.13;7.53;;;12.30;99.90;;;;;;5117965;27;20030;-81
2022/10/01 00:29:38;;;;;;;9.30;7.43;;;12.30;99.90;;;;;;5134827;27;20041;-82
2022/10/01 00:32:04;;;;;;;9.63;4.80;;;12.30;99.90;;;;;;5153007;27;20046;-82
2022/10/01 00:34:30;;;;;;;10.52;5.63;;;12.30;99.90;;;;;;5135534;27;20041;-82
2022/10/01 00:36:55;;;;;;;11.43;5.40;;;12.20;99.90;;;;;;5134808;27;20484;-82
2022/10/01 00:39:22;;;;;;;9.85;7.78;;;12.20;99.90;;;;;;5134990;27;20039;-81
2022/10/01 00:41:48;;;;;;;9.13;5.40;;;12.20;99.90;;;;;;5117606;27;20160;-82
2022/10/01 00:44:35;;;;;;;11.48;5.53;;;12.20;99.90;;;;;;5134756;27;20080;-82
2022/10/01 00:47:06;;;;;;;9.57;5.22;;;12.10;99.90;;;;;;5135233;27;20400;-81
2022/10/01 00:49:35;;;;;;;9.73;5.22;;;12.10;99.90;;;;;;5134983;27;20151;-82
2022/10/01 00:52:06;;;;;;;10.23;5.32;;;12.00;99.90;;;;;;5134284;27;20089;-82
2022/10/01 00:54:45;;;;;;;9.73;5.35;;;12.00;99.90;;;;;;5134734;27;20078;-82
2022/10/01 00:57:14;;;;;;;9.75;5.43;;;12.00;99.90;;;;;;5134666;27;20094;-82
2022/10/01 00:59:39;;;;;;;10.30;5.40;;;11.90;99.90;;;;;;5134479;27;20510;-82
2022/10/01 01:02:05;;;;;;;12.43;5.53;;;11.90;99.90;;;;;;5117506;27;20031;-81
2022/10/01 01:04:31;;;;;;;10.07;8.25;;;11.90;99.90;;;;;;5139134;27;20109;-82
2022/10/01 01:07:00;;;;;;;9.95;5.97;;;11.90;99.90;;;;;;5141206;27;20038;-82
2022/10/01 01:09:36;;;;;;;8.93;4.97;;;11.90;99.90;;;;;;5124127;27;20073;-82
2022/10/01 01:12:19;;;;;;;9.75;5.32;;;11.90;99.90;;;;;;5141466;27;20104;-82
2022/10/01 01:14:44;;;;;;;;;;;11.80;99.90;;;;;;5141598;27;20046;-82
2022/10/01 01:17:21;;;;;;;12.55;5.15;;;11.80;99.90;;;;;;5141606;27;19923;-82
2022/10/01 01:20:01;;;;;;;10.95;5.40;;;11.80;99.90;;;;;;5141537;27;20501;-82
2022/10/01 01:22:32;;;;;;;11.00;5.72;;;11.80;99.90;;;;;;5140887;27;20151;-82
2022/10/01 01:25:14;;;;;;;10.98;5.43;;;11.70;99.90;;;;;;5160215;27;20084;-81
2022/10/01 01:28:00;;;;;;;12.80;5.97;;;11.70;99.90;;;;;;5141466;27;20041;-81
2022/10/01 01:30:26;;;;;;;10.35;6.75;;;11.70;99.90;;;;;;5140727;27;20046;-82
2022/10/01 01:33:02;;;;;;;11.07;6.38;;;11.70;99.90;;;;;;5124013;27;20045;-82
2022/10/01 01:35:35;;;;;;;12.38;6.07;;;11.70;99.90;;;;;;5141415;27;20043;-82
2022/10/01 01:38:07;;;;;;;11.52;5.20;;;11.70;99.90;;;;;;5124063;27;20091;-82
2022/10/01 01:40:36;;;;;;;10.23;6.03;;;11.70;99.90;;;;;;5141086;27;20380;-82
2022/10/01 01:43:05;;;;;;;10.07;6.05;;;11.70;99.90;;;;;;5123705;27;20035;-82
2022/10/01 01:45:32;;;;;;;9.57;5.90;;;11.60;99.90;;;;;;5141022;27;20050;-81
2022/10/01 01:48:01;;;;;;;12.05;7.07;;;11.60;99.90;;;;;;5141519;27;20066;-82
2022/10/01 01:50:33;;;;;;;11.57;6.38;;;11.60;99.90;;;;;;5124028;27;20057;-82
2022/10/01 01:52:59;;;;;;;12.00;5.82;;;11.60;99.90;;;;;;5159679;27;20050;-82
2022/10/01 01:55:28;;;;;;;10.88;6.10;;;11.60;99.90;;;;;;5159391;27;20031;-82
2022/10/01 01:57:56;;;;;;;11.23;6.72;;;11.60;99.90;;;;;;5140989;27;20034;-81
2022/10/01 02:00:21;;;;;;;11.95;9.48;;;11.60;99.90;;;;;;5140832;27;20054;-81
2022/10/01 02:02:50;;;;;;;10.23;6.20;;;11.60;99.90;;;;;;5140652;27;20038;-82
2022/10/01 02:05:24;;;;;;;11.88;6.30;;;11.60;99.90;;;;;;5140854;27;20438;-81
2022/10/01 02:08:11;;;;;;;10.30;5.50;;;11.60;99.90;;;;;;5140816;27;20050;-82
2022/10/01 02:11:01;;;;;;;10.55;5.80;;;11.60;99.90;;;;;;5141303;27;20043;-82
2022/10/01 02:13:33;;;;;;;10.50;6.72;;;11.50;99.90;;;;;;5140875;27;20426;-82
2022/10/01 02:16:03;;;;;;;10.60;6.72;;;11.50;99.90;;;;;;5137770;27;20047;-82
2022/10/01 02:18:31;;;;;;;9.82;6.20;;;11.60;99.90;;;;;;5137665;27;20042;-82
2022/10/01 02:21:36;;;;;;;11.32;7.35;;;11.50;99.90;;;;;;5120135;27;20118;-81
2022/10/01 02:24:24;;;;;;;9.88;6.43;;;11.60;99.90;;;;;;5034969;28;20048;-82
2022/10/01 02:26:52;;;;;;;10.13;6.18;;;11.50;99.90;;;;;;5035092;28;20095;-82
2022/10/01 02:29:21;;;;;;;10.70;6.32;;;11.50;99.90;;;;;;5034617;28;20099;-82
2022/10/01 02:31:52;;;;;;;10.20;5.97;;;11.50;99.90;;;;;;5034998;28;20380;-82
2022/10/01 02:34:19;;;;;;;11.90;6.50;;;11.50;99.90;;;;;;5035349;28;20521;-82
2022/10/01 02:36:45;;;;;;;10.35;6.00;;;11.50;99.90;;;;;;5034545;28;20421;-82
2022/10/01 02:39:14;;;;;;;9.85;5.28;;;11.50;99.90;;;;;;5034548;28;20052;-82
2022/10/01 02:41:43;;;;;;;10.30;5.30;;;11.50;99.90;;;;;;5034625;28;20487;-82
2022/10/01 02:44:22;;;;;;;10.50;5.55;;;11.50;99.90;;;;;;5034545;28;20095;-82
2022/10/01 02:46:55;;;;;;;9.00;5.40;;;11.50;99.90;;;;;;5034609;28;20049;-82
2022/10/01 02:49:21;;;;;;;9.02;5.20;;;11.50;99.90;;;;;;5018279;28;20052;-82
2022/10/01 02:52:05;;;;;;;9.95;5.03;;;11.50;99.90;;;;;;5033757;28;20045;-82
2022/10/01 02:54:39;;;;;;;10.10;5.68;;;11.50;99.90;;;;;;5034803;28;20049;-82
2022/10/01 02:57:23;;;;;;;8.50;4.90;;;11.50;99.90;;;;;;5034417;28;20045;-82
2022/10/01 02:59:50;;;;;;;8.95;4.18;;;11.60;99.90;;;;;;5098824;27;20088;-82
2022/10/01 03:02:16;;;;;;;8.50;4.63;;;11.60;99.90;;;;;;5136545;27;20556;-82
2022/10/01 03:04:42;;;;;;;11.15;4.50;;;11.60;99.90;;;;;;5136829;27;20039;-82
2022/10/01 03:07:08;;;;;;;6.78;3.83;;;11.60;99.90;;;;;;5136746;27;20430;-82
2022/10/01 03:09:35;;;;;;;8.00;3.92;;;11.60;99.90;;;;;;5136617;27;20050;-82
2022/10/01 03:12:01;;;;;;;8.90;6.82;;;11.60;99.90;;;;;;5136113;27;20046;-82
2022/10/01 03:14:27;;;;;;;9.35;5.07;;;11.70;99.90;;;;;;5119279;27;20142;-82
2022/10/01 03:16:53;;;;;;;8.15;3.80;;;11.70;99.90;;;;;;5136877;27;20077;-82
2022/10/01 03:19:19;;;;;;;7.70;3.67;;;11.70;99.90;;;;;;5136096;27;20142;-82
2022/10/01 03:21:45;;;;;;;7.78;3.95;;;11.70;99.90;;;;;;5119176;27;20066;-82
2022/10/01 03:24:10;;;;;;;7.03;3.45;;;11.70;99.90;;;;;;5136621;27;20041;-81
2022/10/01 03:26:36;;;;;;;9.27;4.53;;;11.60;99.90;;;;;;5135778;27;20027;-82
2022/10/01 03:29:03;;;;;;;7.63;3.72;;;11.60;99.90;;;;;;5136195;27;20034;-82
2022/10/01 03:31:28;;;;;;;9.18;3.50;;;11.70;99.90;;;;;;5135775;27;20054;-82
2022/10/01 03:33:56;;;;;;;7.78;3.60;;;11.70;99.90;;;;;;5136041;27;20035;-82
2022/10/01 03:36:22;;;;;;;6.40;3.38;;;11.70;99.90;;;;;;5136138;27;20091;-82
2022/10/01 03:38:47;;;;;;;6.70;3.45;;;11.60;99.90;;;;;;5135858;27;20042;-82
2022/10/01 03:41:13;;;;;;;7.00;3.40;;;11.60;99.90;;;;;;5118576;27;20118;-82
2022/10/01 03:43:38;;;;;;;6.10;3.22;;;11.60;99.90;;;;;;5118479;27;20102;-82
2022/10/01 03:46:04;;;;;;;6.65;3.20;;;11.60;99.90;;;;;;5154727;27;20118;-82
2022/10/01 03:48:30;;;;;;;6.32;3.10;;;11.60;99.90;;;;;;5135799;27;20640;-82
2022/10/01 03:50:57;;;;;;;6.72;2.92;;;11.60;99.90;;;;;;5135414;27;20034;-82
2022/10/01 03:53:25;;;;;;;5.88;2.58;;;11.60;99.90;;;;;;5135580;27;20046;-82
2022/10/01 03:55:51;;;;;;;6.15;2.75;;;11.60;99.90;;;;;;5135922;27;20369;-82
2022/10/01 03:58:17;;;;;;;6.95;2.97;;;11.60;99.90;;;;;;5135144;27;20495;-81
2022/10/01 04:00:45;;;;;;;6.28;2.83;;;11.60;99.90;;;;;;5135617;27;20083;-82
2022/10/01 04:03:11;;;;;;;7.72;3.58;;;11.60;99.90;;;;;;5135728;27;20038;-82
2022/10/01 04:05:36;;;;;;;6.60;2.55;;;11.60;99.90;;;;;;5153795;27;20114;-82
2022/10/01 04:08:02;;;;;;;7.35;3.58;;;11.60;99.90;;;;;;5135565;27;20043;-82
2022/10/01 04:10:27;;;;;;;6.25;2.65;;;11.60;99.90;;;;;;5135541;27;20545;-82
2022/10/01 04:12:54;;;;;;;7.30;3.17;;;11.50;99.90;;;;;;5134713;27;20412;-82
2022/10/01 04:15:20;;;;;;;6.05;2.75;;;11.60;99.90;;;;;;5135546;27;20064;-82
2022/10/01 04:17:47;;;;;;;6.55;2.72;;;11.60;99.90;;;;;;5118241;27;20070;-82
2022/10/01 04:20:12;;;;;;;5.88;2.78;;;11.60;99.90;;;;;;5153573;27;20043;-82
2022/10/01 04:22:41;;;;;;;7.45;3.42;;;11.60;99.90;;;;;;5134263;27;20035;-82
2022/10/01 04:25:10;;;;;;;6.88;3.15;;;11.60;99.90;;;;;;5135215;27;20163;-82
2022/10/01 04:27:40;;;;;;;7.45;3.50;;;11.60;99.90;;;;;;5135019;27;20105;-82
2022/10/01 04:30:07;;;;;;;6.72;2.90;;;11.60;99.90;;;;;;5135449;27;20114;-82
2022/10/01 04:32:33;;;;;;;7.63;2.92;;;11.60;99.90;;;;;;5135148;27;20041;-82
2022/10/01 04:34:59;;;;;;;6.05;2.95;;;11.70;99.90;;;;;;5134948;27;20030;-82
2022/10/01 04:37:26;;;;;;;6.63;2.80;;;11.60;99.90;;;;;;5135043;27;20031;-82
2022/10/01 04:39:52;;;;;;;5.20;2.40;;;11.70;99.90;;;;;;5117107;27;20038;-82
2022/10/01 04:42:18;;;;;;;5.35;2.40;;;11.70;99.90;;;;;;5134402;27;20027;-82
2022/10/01 04:44:43;;;;;;;6.80;2.85;;;11.70;99.90;;;;;;5134865;27;20039;-82
2022/10/01 04:47:09;;;;;;;6.68;2.38;;;11.70;99.90;;;;;;5134923;27;20083;-82
2022/10/01 04:49:34;;;;;;;6.53;3.83;;;11.70;99.90;;;;;;5134523;27;20045;-82
2022/10/01 04:52:00;;;;;;;7.22;2.50;;;11.80;99.90;;;;;;5134447;27;20468;-82
2022/10/01 04:54:26;;;;;;;4.88;2.15;;;11.80;99.90;;;;;;5117540;27;20043;-82
2022/10/01 04:56:51;;;;;;;3.95;2.08;;;11.80;99.90;;;;;;5134274;27;20070;-82
2022/10/01 04:59:18;;;;;;;6.18;2.03;;;11.80;99.90;;;;;;5112083;27;20036;-82
2022/10/01 05:01:44;;;;;;;4.00;1.80;;;11.80;99.90;;;;;;5095783;28;20118;-82
2022/10/01 05:04:10;;;;;;;6.85;3.15;;;11.80;99.90;;;;;;5112823;28;20051;-82
2022/10/01 05:06:36;;;;;;;4.50;1.95;;;11.80;99.90;;;;;;5112974;28;20428;-82
2022/10/01 05:09:02;;;;;;;5.53;1.95;;;11.90;99.90;;;;;;5112790;28;20592;-82
2022/10/01 05:11:27;;;;;;;4.05;1.98;;;11.90;99.90;;;;;;5112803;28;20039;-82
2022/10/01 05:13:53;;;;;;;4.63;1.83;;;11.90;99.90;;;;;;5113455;28;20046;-82
2022/10/01 05:16:18;;;;;;;3.97;1.60;;;11.90;99.90;;;;;;5113256;28;20039;-82
2022/10/01 05:18:44;;;;;;;5.05;2.10;;;11.90;99.90;;;;;;5112906;28;20051;-82
2022/10/01 05:21:10;;;;;;;4.60;2.05;;;11.90;99.90;;;;;;5112728;28;20028;-82
2022/10/01 05:23:37;;;;;;;4.45;1.80;;;11.90;99.90;;;;;;5113073;28;20114;-82
2022/10/01 05:26:04;;;;;;;4.18;1.90;;;11.90;99.90;;;;;;5095899;28;20035;-82
2022/10/01 05:28:30;;;;;;;4.03;2.08;;;11.90;99.90;;;;;;5113378;28;20131;-82
2022/10/01 05:30:59;;;;;;;4.32;1.90;;;12.00;99.90;;;;;;5095825;28;20646;-82
2022/10/01 05:33:28;;;;;;;5.35;2.10;;;12.00;99.90;;;;;;5112613;28;20047;-82
2022/10/01 05:35:55;;;;;;;5.10;2.30;;;12.00;99.90;;;;;;5131762;28;20047;-82
2022/10/01 05:38:20;;;;;;;7.25;2.45;;;12.00;99.90;;;;;;5112817;28;20035;-82
2022/10/01 05:40:46;;;;;;;5.68;2.15;;;12.00;99.90;;;;;;5112929;28;20065;-82
2022/10/01 05:43:13;;;;;;;6.07;2.15;;;12.10;99.90;;;;;;5113087;28;20027;-82
2022/10/01 05:45:38;;;;;;;5.32;2.40;;;12.10;99.90;;;;;;5113127;28;20438;-82
2022/10/01 05:48:06;;;;;;;5.00;2.30;;;12.10;99.90;;;;;;5131127;28;20035;-82
2022/10/01 05:50:36;;;;;;;5.50;2.15;;;12.10;99.90;;;;;;5096665;27;20084;-82
2022/10/01 05:53:02;;;;;;;6.28;2.65;;;12.10;99.90;;;;;;5116744;27;20043;-82
2022/10/01 05:55:33;;;;;;;6.65;3.40;;;12.20;99.90;;;;;;5099604;27;20389;-82
2022/10/01 05:58:07;;;;;;;4.80;2.25;;;12.20;99.90;;;;;;5116935;27;20114;-82
2022/10/01 06:00:33;;;;;;;5.32;2.30;;;12.30;99.90;;;;;;5116835;27;20374;-82
2022/10/01 06:03:01;;;;;;;6.60;3.90;;;12.30;99.90;;;;;;5116635;27;20381;-82
2022/10/01 06:05:28;;;;;;;4.93;2.20;;;12.30;99.90;;;;;;5116596;27;20113;-82
2022/10/01 06:07:54;;;;;;;5.65;2.67;;;12.40;99.90;;;;;;5116762;27;20035;-82
2022/10/01 06:10:20;;;;;;;5.80;2.67;;;12.40;99.90;;;;;;5099313;27;20042;-82
2022/10/01 06:12:47;;;;;;;8.07;4.18;;;12.40;99.90;;;;;;5116347;27;20043;-82
2022/10/01 06:15:14;;;;;;;8.15;2.75;;;12.40;99.90;;;;;;5099462;27;20349;-82
2022/10/01 06:17:43;;;;;;;7.20;4.28;;;12.40;99.90;;;;;;5116081;27;20043;-81
2022/10/01 06:20:18;;;;;;;6.55;2.95;;;12.50;99.90;;;;;;5116080;27;20047;-82
2022/10/01 06:22:51;;;;;;;9.68;2.83;;;12.50;99.90;;;;;;5116367;27;20167;-81
2022/10/01 06:25:17;;;;;;;6.70;3.08;;;12.50;99.90;;;;;;5116054;27;20118;-81
2022/10/01 06:27:42;;;;;;;8.45;3.80;;;12.50;99.90;;;;;;5116473;27;20160;-81
2022/10/01 06:30:08;;;;;;;5.25;2.67;;;12.60;99.90;;;;;;5098925;27;20041;-82
2022/10/01 06:32:34;;;;;;;7.43;3.33;;;12.60;99.90;;;;;;5115633;27;20042;-81
2022/10/01 06:34:59;;;;;;;6.35;3.33;;;12.60;99.90;;;;;;5116143;27;20035;-82
2022/10/01 06:37:25;;;;;;;6.82;3.47;;;12.60;99.90;;;;;;5115954;27;20127;-81
2022/10/01 06:39:50;;;;;;;8.68;3.75;;;12.60;99.90;;;;;;5115412;27;20059;-82
2022/10/01 06:42:16;;;;;;;7.05;3.92;;;12.70;99.90;;;;;;5098840;27;20062;-82
2022/10/01 06:44:42;;;;;;;7.15;3.88;;;12.70;99.90;;;;;;5116268;27;20062;-82
2022/10/01 06:47:08;;;;;;;8.63;5.70;;;12.70;99.90;;;;;;5112311;27;20031;-81
2022/10/01 06:49:33;;;;;;;8.73;4.07;;;12.80;99.90;;;;;;5115536;27;20046;-81
2022/10/01 06:54:44;;;;;;;7.97;4.28;;;12.80;99.90;;;;;;5115236;27;20043;-82
2022/10/01 06:57:10;;;;;;;8.00;4.72;;;12.80;99.90;;;;;;5098688;27;20385;-82
2022/10/01 06:59:38;;;;;;;9.38;6.72;;;12.80;99.90;;;;;;5114588;27;20042;-81
2022/10/01 07:02:04;;;;;;;9.02;4.75;;;12.90;99.90;;;;;;5097742;27;20071;-81
2022/10/01 07:04:30;;;;;;;9.10;4.40;;;13.00;99.90;;;;;;5115977;27;20071;-82
2022/10/01 07:06:56;;;;;;;10.88;4.75;;;13.00;99.90;;;;;;5115987;27;20031;-82
2022/10/01 07:09:25;;;;;;;10.95;7.40;;;13.00;99.90;;;;;;5115385;27;20047;-81
2022/10/01 07:11:53;;;;;;;9.38;4.75;;;13.10;99.90;;;;;;5098082;27;20042;-81
2022/10/01 07:14:20;;;;;;;9.88;4.75;;;13.10;99.90;;;;;;5115101;27;20039;-81
2022/10/01 07:16:46;;;;;;;7.28;4.35;;;13.10;99.90;;;;;;5114595;27;20045;-81
2022/10/01 07:19:11;;;;;;;11.98;7.80;;;13.10;99.90;;;;;;5115157;27;20035;-81
2022/10/01 07:21:37;;;;;;;10.45;5.75;;;13.10;99.90;;;;;;5114957;27;20118;-81
2022/10/01 07:24:02;;;;;;;11.63;7.78;;;13.20;99.90;;;;;;5115356;27;20402;-81
2022/10/01 07:26:28;;;;;;;9.07;4.97;;;13.30;99.90;;;;;;5115329;27;20572;-81
2022/10/01 07:28:54;;;;;;;9.18;5.82;;;13.20;99.90;;;;;;5114983;27;20035;-81
2022/10/01 07:31:20;;;;;;;11.13;5.18;;;13.30;99.90;;;;;;5114360;27;20522;-81
2022/10/01 07:33:46;;;;;;;10.80;5.40;;;13.30;99.90;;;;;;5115245;27;20106;-82
2022/10/01 07:36:12;;;;;;;11.05;7.90;;;13.40;99.90;;;;;;5115211;27;20399;-82
2022/10/01 07:38:37;;;;;;;8.93;5.38;;;13.50;99.90;;;;;;5097630;27;20711;-82
2022/10/01 07:41:03;;;;;;;12.02;7.45;;;13.60;99.90;;;;;;5113985;27;20118;-81
2022/10/01 07:43:30;;;;;;;15.98;5.88;;;13.80;99.90;;;;;;5097953;27;20042;-82
2022/10/01 07:45:57;;;;;;;11.45;6.78;;;13.80;99.90;;;;;;5114521;27;20080;-82
2022/10/01 07:48:26;;;;;;;12.35;5.20;;;13.80;99.90;;;;;;5114820;27;20043;-82
2022/10/01 07:50:52;;;;;;;10.18;6.38;;;13.90;99.90;;;;;;5114242;27;20049;-82
2022/10/01 07:53:18;;;;;;;10.63;5.18;;;13.90;99.90;;;;;;5097087;27;20462;-82
2022/10/01 07:55:44;;;;;;;7.85;4.35;;;14.00;99.90;;;;;;5097626;27;20031;-82
2022/10/01 07:58:13;;;;;;;13.55;6.25;;;14.10;99.90;;;;;;5097577;27;20035;-82
2022/10/01 08:00:39;;;;;;;10.80;5.30;;;14.10;99.90;;;;;;5113719;27;20087;-82
2022/10/01 08:03:04;;;;;;;11.98;6.18;;;14.20;99.90;;;;;;5114467;27;20031;-82
2022/10/01 08:05:33;;;;;;;11.48;4.32;;;14.30;99.90;;;;;;5132762;27;20112;-82
2022/10/01 08:08:04;;;;;;;8.65;4.40;;;14.30;99.90;;;;;;5114134;27;20491;-82
2022/10/01 08:10:33;;;;;;;13.30;4.90;;;14.30;99.90;;;;;;5114266;27;20783;-82
2022/10/01 08:13:07;;;;;;;11.13;4.65;;;14.30;99.90;;;;;;5113888;28;20089;-82
2022/10/01 08:15:34;;;;;;;12.98;5.50;;;14.30;99.90;;;;;;5096735;27;20050;-82
2022/10/01 08:18:02;;;;;;;15.82;5.63;;;14.40;99.90;;;;;;5097149;27;20050;-82
2022/10/01 08:20:27;;;;;;;13.77;4.95;;;14.50;99.90;;;;;;5114016;27;20074;-82
2022/10/01 08:22:53;;;;;;;9.10;3.90;;;14.60;99.90;;;;;;5113483;27;20070;-82
2022/10/01 08:25:18;;;;;;;10.32;5.15;;;14.60;99.90;;;;;;5114744;27;20046;-82
2022/10/01 08:27:44;;;;;;;11.55;4.30;;;14.70;99.90;;;;;;5114183;27;20031;-82
2022/10/01 08:30:10;;;;;;;12.73;5.25;;;14.80;99.90;;;;;;5113868;27;20039;-82
2022/10/01 08:32:35;;;;;;;11.95;4.70;;;14.80;99.90;;;;;;5096913;27;20084;-82
2022/10/01 08:35:01;;;;;;;11.23;4.80;;;14.90;99.90;;;;;;5121271;27;20039;-82
2022/10/01 08:37:28;;;;;;;11.27;4.95;;;14.90;99.90;;;;;;5133858;27;20035;-82
2022/10/01 08:39:54;;;;;;;10.45;4.28;;;15.10;99.90;;;;;;5128375;27;20491;-82
2022/10/01 08:43:00;;;;;;;10.25;3.63;;;15.10;99.90;;;;;;5124429;27;20064;-82
2022/10/01 08:45:40;;;;;;;13.57;3.88;;;15.10;99.90;;;;;;5050801;28;20037;-82
2022/10/01 08:48:25;;;;;;;11.60;4.53;;;15.10;99.90;;;;;;5119203;27;20110;-82
2022/10/01 08:51:04;;;;;;;14.45;3.53;;;15.30;99.90;;;;;;5123763;27;20114;-81
2022/10/01 08:53:41;;;;;;;11.43;3.00;;;15.40;99.90;;;;;;5122061;27;20039;-82
2022/10/01 08:56:20;;;;;;;12.38;3.70;;;15.40;99.90;;;;;;5115145;27;20047;-82
2022/10/01 08:58:57;;;;;;;11.85;2.40;;;15.50;99.90;;;;;;5113751;28;20500;-82
2022/10/01 09:01:24;;;;;;;10.50;2.78;;;15.60;99.90;;;;;;5095792;28;20073;-82
2022/10/01 09:03:49;;;;;;;11.93;3.08;;;15.60;99.90;;;;;;5116346;27;20094;-82
2022/10/01 09:06:25;;;;;;;9.57;2.28;;;15.80;99.90;;;;;;5121440;28;20031;-82
2022/10/01 09:09:28;;;;;;;10.95;2.58;;;15.80;99.90;;;;;;5104083;27;20070;-82
2022/10/01 09:12:03;;;;;;;;;;;15.90;99.90;;;;;;5118893;28;20035;-82
2022/10/01 09:14:59;;;;;;;10.32;2.70;;;15.90;99.90;;;;;;5123835;27;20322;-82
2022/10/01 09:17:52;;;;;;;11.27;2.80;;;16.10;99.90;;;;;;5118210;27;20421;-82
2022/10/01 09:20:18;;;;;;;;;;;16.20;99.90;;;;;;5107860;27;20666;-82
2022/10/01 09:22:48;;;;;;;11.02;2.08;;;16.20;99.90;;;;;;5115560;27;19922;-82
2022/10/01 09:25:26;;;;;;;9.38;2.60;;;16.30;99.90;;;;;;5116848;27;20039;-82
2022/10/01 09:28:09;;;;;;;9.80;2.10;;;16.20;99.90;;;;;;5137860;27;20046;-82
2022/10/01 09:30:36;;;;;;;13.63;2.83;;;16.20;99.90;;;;;;5120293;27;20049;-82
2022/10/01 09:33:13;;;;;;;10.30;2.05;;;16.20;99.90;;;;;;5138113;27;20440;-82
2022/10/01 09:36:32;;;;;;;11.73;2.63;;;16.30;99.90;;;;;;5119469;27;20117;-82
2022/10/01 09:39:16;;;;;;;8.77;2.08;;;16.40;99.90;;;;;;5018524;28;20461;-82
2022/10/01 09:41:45;;;;;;;9.70;1.90;;;16.40;99.90;;;;;;5034873;28;20052;-82
2022/10/01 09:44:16;;;;;;;10.38;2.00;;;16.30;99.90;;;;;;5018704;28;20554;-82
2022/10/01 09:46:44;;;;;;;8.23;1.50;;;16.30;99.90;;;;;;5035393;28;20176;-82
2022/10/01 09:49:32;;;;;;;11.48;1.90;;;16.20;99.90;;;;;;5019113;28;20095;-82
2022/10/01 09:52:02;;;;;;;7.82;1.60;;;16.30;99.90;;;;;;5034289;28;20045;-82
2022/10/01 09:54:43;;;;;;;8.90;1.73;;;16.40;99.90;;;;;;5035229;28;20048;-82
2022/10/01 09:57:23;;;;;;;8.07;2.05;;;16.40;99.90;;;;;;5020157;28;20057;-82
2022/10/01 09:59:55;;;;;;;8.18;1.98;;;16.50;99.90;;;;;;5014172;28;20045;-82
2022/10/01 10:02:30;;;;;;;8.07;1.53;;;16.60;99.90;;;;;;5014802;28;20045;-82
2022/10/01 10:05:04;;;;;;;9.50;1.98;;;16.80;99.90;;;;;;4999181;28;20284;-82
2022/10/01 10:07:31;;;;;;;8.30;1.40;;;17.00;99.90;;;;;;5015146;28;20075;-82
2022/10/01 10:10:06;;;;;;;6.72;1.63;;;16.90;99.90;;;;;;5015028;28;20037;-82
2022/10/01 10:12:33;;;;;;;7.55;1.42;;;16.90;99.90;;;;;;5014220;28;20045;-82
2022/10/01 10:15:06;;;;;;;7.97;1.63;;;16.90;99.90;;;;;;5098818;27;20059;-82
2022/10/01 10:17:36;;;;;;;7.47;1.42;;;17.00;99.90;;;;;;5116544;27;20151;-82
2022/10/01 10:20:09;;;;;;;8.05;1.60;;;17.20;99.90;;;;;;5099376;27;20129;-82
2022/10/01 10:22:35;;;;;;;9.02;1.98;;;17.30;99.90;;;;;;5115739;27;20105;-82
2022/10/01 10:25:11;;;;;;;7.63;1.73;;;17.30;99.90;;;;;;5116960;27;20373;-82
2022/10/01 10:27:36;;;;;;;10.43;1.80;;;17.30;99.90;;;;;;5116100;27;20039;-82
2022/10/01 10:30:13;;;;;;;7.80;1.77;;;17.30;99.90;;;;;;5115863;27;20046;-82
2022/10/01 10:32:40;;;;;;;8.13;2.10;;;17.20;99.90;;;;;;5115514;27;20180;-82
2022/10/01 10:35:12;;;;;;;10.70;2.67;;;17.10;99.90;;;;;;5116212;27;20047;-82
2022/10/01 10:37:43;;;;;;;;;;;17.00;99.90;;;;;;5114903;27;20508;-82
2022/10/01 10:40:20;;;;;;;11.98;2.55;;;16.90;99.90;;;;;;5115130;27;19922;-82
2022/10/01 10:42:51;;;;;;;8.07;1.45;;;16.80;99.90;;;;;;5115171;27;20091;-82
2022/10/01 10:45:20;;;;;;;11.30;2.30;;;16.80;99.90;;;;;;5115478;27;20458;-82
2022/10/01 10:47:50;;;;;;;10.45;2.75;;;16.80;99.90;;;;;;5116220;27;20035;-82
2022/10/01 10:50:28;;;;;;;8.73;2.20;;;16.80;99.90;;;;;;5116143;27;20096;-82
2022/10/01 10:52:55;;;;;;;12.18;2.67;;;16.70;99.90;;;;;;5114693;27;20046;-82
2022/10/01 10:55:29;;;;;;;11.35;2.53;;;16.70;99.90;;;;;;5115434;27;20047;-81
2022/10/01 10:57:54;;;;;;;11.57;2.75;;;16.70;99.90;;;;;;5115314;27;20043;-82
2022/10/01 11:00:24;;;;;;;10.85;2.70;;;16.60;99.90;;;;;;5098517;27;20084;-82
2022/10/01 11:03:00;;;;;;;10.40;2.20;;;16.50;99.90;;;;;;5115100;27;20492;-82
2022/10/01 11:05:30;;;;;;;7.85;2.30;;;16.40;99.90;;;;;;5115551;27;20598;-82
2022/10/01 11:07:59;;;;;;;6.20;1.65;;;16.30;99.90;;;;;;5114928;27;20039;-82
2022/10/01 11:10:34;;;;;;;8.45;1.80;;;16.20;99.90;;;;;;5115391;27;20044;-82
2022/10/01 11:13:11;;;;;;;6.43;1.38;;;16.10;99.90;;;;;;5115080;27;20039;-82
2022/10/01 11:16:02;;;;;;;9.18;2.08;;;16.10;99.90;;;;;;5097950;27;20534;-82
2022/10/01 11:18:43;;;;;;;9.38;2.60;;;16.00;99.90;;;;;;5098167;27;20084;-82
2022/10/01 11:21:19;;;;;;;9.32;1.85;;;15.80;99.90;;;;;;5114615;27;20035;-82
2022/10/01 11:24:09;;;;;;;6.97;1.25;;;15.70;99.90;;;;;;5115137;27;20035;-82
2022/10/01 11:27:05;;;;;;;9.68;1.65;;;15.50;99.90;;;;;;5115742;27;20037;-82
2022/10/01 11:29:41;;;;;;;8.27;1.88;;;15.50;99.90;;;;;;5114907;27;20519;-82
2022/10/01 11:32:45;;;;;;;6.10;1.23;;;15.60;99.90;;;;;;5114960;27;20046;-82
2022/10/01 11:35:36;;;;;;;7.82;1.95;;;15.60;99.90;;;;;;5097867;27;20092;-82
2022/10/01 11:38:19;;;;;;;6.85;1.77;;;15.70;99.90;;;;;;5114784;27;20412;-82
2022/10/01 11:40:47;;;;;;;;;;;15.70;99.90;;;;;;5116978;27;20481;-82
2022/10/01 11:43:25;;;;;;;6.22;1.00;;;15.50;99.90;;;;;;5116884;27;19922;-82
2022/10/01 11:45:55;;;;;;;8.95;1.70;;;15.40;99.90;;;;;;5114637;27;20126;-82
2022/10/01 11:48:32;;;;;;;7.90;1.65;;;15.40;99.90;;;;;;5114703;27;20504;-82
2022/10/01 11:51:04;;;;;;;9.15;2.00;;;15.30;99.90;;;;;;5111315;27;20050;-82
2022/10/01 11:53:38;;;;;;;7.50;1.03;;;15.20;99.90;;;;;;5113230;27;20047;-82
2022/10/01 11:59:03;;;;;;;6.75;1.10;;;15.10;99.90;;;;;;5131416;27;20067;-82
2022/10/01 12:02:06;;;;;;;8.25;1.70;;;15.00;99.90;;;;;;5131212;27;20042;-82
2022/10/01 12:04:38;;;;;;;6.32;1.60;;;15.00;99.90;;;;;;5113546;27;20039;-82
2022/10/01 12:07:15;;;;;;;6.25;1.50;;;15.00;99.90;;;;;;5096863;27;20035;-82
2022/10/01 12:10:13;;;;;;;9.23;1.70;;;15.10;99.90;;;;;;5113543;27;20400;-82
2022/10/01 12:12:55;;;;;;;9.10;2.08;;;15.30;99.90;;;;;;5113439;27;20099;-82
2022/10/01 12:15:31;;;;;;;7.85;1.30;;;15.60;99.90;;;;;;5114421;27;20043;-82
2022/10/01 12:18:09;;;;;;;10.27;2.10;;;15.80;99.90;;;;;;5113374;27;20043;-82
2022/10/01 12:20:43;;;;;;;11.50;2.17;;;16.00;99.90;;;;;;5096085;27;20523;-82
2022/10/01 12:23:21;;;;;;;9.07;1.90;;;16.10;99.90;;;;;;5112830;27;20035;-82
2022/10/01 12:26:03;;;;;;;9.52;2.25;;;16.30;99.90;;;;;;5113973;27;20038;-82
2022/10/01 12:28:54;;;;;;;11.48;2.15;;;16.40;99.90;;;;;;5113512;27;20043;-82
2022/10/01 12:31:52;;;;;;;10.20;2.45;;;16.70;99.90;;;;;;5082133;27;20046;-83
2022/10/01 12:34:40;;;;;;;12.43;2.53;;;16.80;99.90;;;;;;5104330;27;20047;-83
2022/10/01 12:37:12;;;;;;;11.98;2.45;;;16.80;99.90;;;;;;5113791;27;20047;-82
2022/10/01 12:39:56;;;;;;;11.43;2.42;;;16.70;99.90;;;;;;5113488;27;20495;-82
2022/10/01 12:42:39;;;;;;;14.65;3.50;;;16.60;99.90;;;;;;5113056;27;20050;-82
2022/10/01 12:45:32;;;;;;;9.70;1.92;;;16.50;99.90;;;;;;5113776;27;20118;-82
2022/10/01 12:47:57;;;;;;;;;;;16.30;99.90;;;;;;5113523;27;20046;-82
2022/10/01 12:50:49;;;;;;;9.25;2.35;;;16.10;99.90;;;;;;5111896;27;19916;-82
2022/10/01 12:53:47;;;;;;;8.93;1.70;;;16.10;99.90;;;;;;5113486;27;20043;-82
2022/10/01 12:56:29;;;;;;;11.57;2.53;;;15.90;99.90;;;;;;5096415;27;20134;-82
2022/10/01 12:59:08;;;;;;;9.40;1.55;;;15.90;99.90;;;;;;5096877;27;20043;-82
2022/10/01 13:01:52;;;;;;;9.60;2.30;;;16.10;99.90;;;;;;5096135;28;20159;-82
2022/10/01 13:04:35;;;;;;;11.27;2.03;;;16.50;99.90;;;;;;5113882;28;20112;-82
2022/10/01 13:07:01;;;;;;;11.15;2.20;;;17.00;99.90;;;;;;5097398;28;20517;-82
2022/10/01 13:09:38;;;;;;;9.55;2.30;;;17.40;99.90;;;;;;5096902;28;20074;-82
2022/10/01 13:12:14;;;;;;;10.02;2.15;;;17.50;99.90;;;;;;5096599;28;20043;-82